Time;durP1;ratioP1;P1;durP2;ratioP2;P2;SDS_P1;SDS_P2;PMS_P1;PMS_P2;Temp;Humidity;BMP_temperature;BMP_pressure;BME280_temperature;BME280_humidity;BME280_pressure;Samples;Min_cycle;Max_cycle;Signal;HPM_P1;HPM_P2
2022/07/28 00:01:47;;;;;;;12.95;8.40;;;;;;;14.14;66.72;101877.59;5110690;28;20083;-59
2022/07/28 00:04:13;;;;;;;13.23;8.35;;;;;;;14.13;66.68;101881.53;5110608;28;20035;-59
2022/07/28 00:06:38;;;;;;;15.02;8.38;;;;;;;14.16;66.67;101878.97;5114540;28;20463;-59
2022/07/28 00:09:03;;;;;;;15.77;8.48;;;;;;;14.16;66.58;101890.09;5114557;28;20066;-59
2022/07/28 00:11:29;;;;;;;13.60;7.82;;;;;;;14.12;66.53;101882.69;5114340;28;20036;-59
2022/07/28 00:13:54;;;;;;;11.10;7.88;;;;;;;14.07;66.52;101871.63;5114419;28;20035;-59
2022/07/28 00:16:20;;;;;;;13.13;8.00;;;;;;;14.05;66.79;101877.50;5115045;28;20071;-59
2022/07/28 00:18:46;;;;;;;14.00;8.07;;;;;;;14.02;66.83;101878.09;5114346;28;20032;-59
2022/07/28 00:21:11;;;;;;;14.10;8.30;;;;;;;13.97;66.95;101867.06;5114448;28;20027;-60
2022/07/28 00:23:37;;;;;;;13.70;8.40;;;;;;;13.97;67.16;101867.06;5114340;28;20066;-57
2022/07/28 00:26:03;;;;;;;14.90;8.52;;;;;;;13.91;67.31;101869.13;5114333;28;20023;-58
2022/07/28 00:28:28;;;;;;;15.13;8.52;;;;;;;13.86;67.17;101880.31;5114347;28;20107;-58
2022/07/28 00:30:54;;;;;;;13.45;8.02;;;;;;;13.84;67.47;101874.22;5113862;28;20109;-58
2022/07/28 00:33:20;;;;;;;12.90;8.55;;;;;;;13.77;67.57;101869.06;5114012;28;20024;-59
2022/07/28 00:35:45;;;;;;;15.13;8.57;;;;;;;13.77;67.53;101871.00;5114061;28;20032;-59
2022/07/28 00:38:10;;;;;;;14.10;8.13;;;;;;;13.69;67.43;101867.78;5113064;28;20028;-59
2022/07/28 00:43:20;;;;;;;14.80;8.38;;;;;;;13.66;68.08;101867.56;5114125;28;20030;-59
2022/07/28 00:45:46;;;;;;;13.30;8.20;;;;;;;13.61;67.98;101857.34;5113716;28;20023;-60
2022/07/28 00:48:12;;;;;;;12.88;8.65;;;;;;;13.55;68.24;101861.34;5113765;28;20090;-59
2022/07/28 00:50:38;;;;;;;15.05;8.50;;;;;;;13.49;68.43;101866.16;5113776;28;20420;-63
2022/07/28 00:53:05;;;;;;;13.45;7.80;;;;;;;13.44;68.18;101852.31;5113791;28;20042;-62
2022/07/28 00:55:30;;;;;;;14.77;7.50;;;;;;;13.44;68.41;101863.44;5113958;28;20377;-59
2022/07/28 00:57:56;;;;;;;14.75;7.20;;;;;;;13.41;68.67;101866.84;5113774;27;20024;-59
2022/07/28 01:00:21;;;;;;;13.13;7.43;;;;;;;13.38;68.57;101868.22;5114218;28;20069;-59
2022/07/28 01:02:46;;;;;;;13.38;7.80;;;;;;;13.29;68.42;101853.34;5113602;28;20028;-60
2022/07/28 01:05:13;;;;;;;15.38;7.45;;;;;;;13.31;68.39;101845.53;5112045;28;20470;-59
2022/07/28 01:07:49;;;;;;;11.07;6.93;;;;;;;13.21;68.61;101831.78;5113938;28;20336;-59
2022/07/28 01:10:35;;;;;;;15.10;7.60;;;;;;;13.25;68.53;101843.97;5114033;28;20129;-59
2022/07/28 01:13:45;;;;;;;16.38;7.70;;;;;;;13.19;68.88;101842.38;5113952;28;20098;-58
2022/07/28 01:16:11;;;;;;;14.05;7.50;;;;;;;13.09;69.41;101840.56;5086417;28;20339;-58
2022/07/28 01:18:56;;;;;;;13.35;6.90;;;;;;;13.05;69.03;101837.56;5113279;28;20024;-59
2022/07/28 01:21:31;;;;;;;15.77;7.55;;;;;;;12.99;69.26;101835.16;5113496;28;20454;-59
2022/07/28 01:24:39;;;;;;;14.18;7.80;;;;;;;12.99;69.18;101846.25;5113235;28;20023;-59
2022/07/28 01:27:28;;;;;;;14.68;7.80;;;;;;;12.95;69.46;101840.47;5098372;28;20031;-58
2022/07/28 01:30:20;;;;;;;14.65;7.55;;;;;;;12.84;69.35;101831.47;5113097;28;20114;-58
2022/07/28 01:32:51;;;;;;;15.77;7.50;;;;;;;12.78;69.86;101825.16;5113421;28;20035;-58
2022/07/28 01:35:25;;;;;;;13.13;7.15;;;;;;;12.82;70.14;101842.03;5113214;28;20053;-59
2022/07/28 01:37:54;;;;;;;13.68;7.50;;;;;;;12.79;69.86;101831.50;5113179;28;20031;-59
2022/07/28 01:40:24;;;;;;;14.38;7.68;;;;;;;12.72;70.19;101833.84;5112792;28;20122;-59
2022/07/28 01:42:53;;;;;;;14.57;7.53;;;;;;;12.68;70.41;101841.09;5113089;27;20116;-59
2022/07/28 01:45:20;;;;;;;14.45;7.82;;;;;;;12.60;70.29;101823.97;5112722;28;20084;-58
2022/07/28 01:47:47;;;;;;;14.68;7.95;;;;;;;12.62;70.54;101827.28;5113072;28;20028;-58
2022/07/28 01:50:15;;;;;;;16.75;7.60;;;;;;;12.60;70.18;101843.41;5113073;28;20027;-59
2022/07/28 01:52:42;;;;;;;13.05;7.50;;;;;;;12.60;70.27;101834.25;5111593;28;20023;-58
2022/07/28 01:55:10;;;;;;;12.98;7.45;;;;;;;12.59;70.45;101832.59;5112930;28;20062;-59
2022/07/28 01:57:36;;;;;;;10.77;7.00;;;;;;;12.62;70.35;101835.63;5112898;28;20031;-59
2022/07/28 02:00:06;;;;;;;13.57;7.43;;;;;;;12.60;70.33;101831.50;5112969;28;20027;-59
2022/07/28 02:02:33;;;;;;;16.25;7.63;;;;;;;12.58;70.38;101833.72;5112827;28;20104;-59
2022/07/28 02:04:59;;;;;;;12.32;7.70;;;;;;;12.57;70.89;101834.84;5111214;28;20023;-59
2022/07/28 02:07:27;;;;;;;15.57;7.60;;;;;;;12.47;71.09;101828.28;5111311;28;20060;-59
2022/07/28 02:09:55;;;;;;;15.15;8.00;;;;;;;12.45;70.79;101822.19;5111068;28;20120;-59
2022/07/28 02:12:23;;;;;;;14.18;7.43;;;;;;;12.44;70.97;101825.28;5112490;28;20035;-59
2022/07/28 02:14:50;;;;;;;15.23;7.57;;;;;;;12.39;71.26;101808.66;5112136;28;20368;-58
2022/07/28 02:17:19;;;;;;;13.25;7.75;;;;;;;12.44;71.27;101816.94;5112249;27;20036;-60
2022/07/28 02:19:47;;;;;;;11.55;7.28;;;;;;;12.45;70.95;101813.88;5110891;28;20035;-59
2022/07/28 02:22:15;;;;;;;14.80;8.10;;;;;;;12.43;71.05;101820.84;5111111;28;20144;-59
2022/07/28 02:24:42;;;;;;;16.48;7.78;;;;;;;12.38;71.12;101810.63;5111006;28;20023;-58
2022/07/28 02:27:19;;;;;;;12.75;7.30;;;;;;;12.37;71.03;101808.97;5111972;28;20032;-58
2022/07/28 02:29:49;;;;;;;15.73;7.80;;;;;;;12.35;71.16;101815.94;5110286;28;20039;-58
2022/07/28 02:32:49;;;;;;;13.85;8.00;;;;;;;12.27;71.08;101806.31;5112175;28;20024;-59
2022/07/28 02:35:21;;;;;;;15.07;7.70;;;;;;;12.30;71.86;101809.31;5111599;28;20424;-58
2022/07/28 02:37:52;;;;;;;13.57;7.85;;;;;;;12.29;71.29;101810.44;5111966;28;20035;-58
2022/07/28 02:40:20;;;;;;;14.75;7.80;;;;;;;12.17;71.71;101794.22;5111558;28;20057;-58
2022/07/28 02:42:49;;;;;;;11.75;7.35;;;;;;;12.18;71.85;101800.59;5111698;28;20015;-59
2022/07/28 02:45:17;;;;;;;15.60;7.68;;;;;;;12.20;71.56;101812.22;5110589;28;20084;-59
2022/07/28 02:47:52;;;;;;;14.95;8.23;;;;;;;12.13;72.00;101808.97;5112159;28;20508;-58
2022/07/28 02:50:22;;;;;;;13.52;7.57;;;;;;;12.13;72.67;101823.66;5112051;28;20072;-59
2022/07/28 02:52:48;;;;;;;13.90;7.78;;;;;;;12.13;71.89;101809.81;5111998;28;20168;-59
2022/07/28 02:55:15;;;;;;;13.95;7.30;;;;;;;12.14;72.21;101813.38;5111486;28;20023;-60
2022/07/28 02:57:43;;;;;;;14.65;7.10;;;;;;;12.11;72.21;101811.19;5110167;28;20382;-59
2022/07/28 03:00:09;;;;;;;13.70;7.03;;;;;;;12.15;71.77;101809.50;5109464;28;20422;-59
2022/07/28 03:02:36;;;;;;;13.23;7.32;;;;;;;12.11;72.19;101811.19;5109961;28;20023;-59
2022/07/28 03:05:03;;;;;;;14.65;7.05;;;;;;;12.04;71.70;101806.00;5111392;28;20061;-59
2022/07/28 03:07:31;;;;;;;13.93;7.70;;;;;;;12.06;71.78;101814.03;5111292;28;20489;-59
2022/07/28 03:09:58;;;;;;;16.23;7.80;;;;;;;12.07;71.92;101804.59;5111288;28;20062;-59
2022/07/28 03:12:24;;;;;;;13.55;7.82;;;;;;;12.05;72.26;101807.63;5109979;28;20020;-58
2022/07/28 03:14:50;;;;;;;14.77;8.20;;;;;;;12.05;72.42;101809.59;5111418;28;20093;-59
2022/07/28 03:17:15;;;;;;;14.75;7.80;;;;;;;12.05;72.22;101807.63;5111365;28;20444;-59
2022/07/28 03:19:40;;;;;;;15.30;7.50;;;;;;;12.01;72.39;101812.13;5110955;28;20161;-58
2022/07/28 03:22:06;;;;;;;15.38;8.00;;;;;;;11.99;72.04;101811.59;5111139;28;20079;-59
2022/07/28 03:24:35;;;;;;;13.20;8.30;;;;;;;11.89;72.49;101798.63;5111649;28;20034;-59
2022/07/28 03:27:31;;;;;;;14.55;7.88;;;;;;;11.95;72.61;101810.50;5109935;28;20039;-59
2022/07/28 03:30:01;;;;;;;13.50;7.30;;;;;;;11.84;72.33;101809.75;5110306;28;20355;-59
2022/07/28 03:32:30;;;;;;;13.18;7.50;;;;;;;11.84;72.46;101810.59;5111476;28;20031;-59
2022/07/28 03:34:56;;;;;;;12.15;7.43;;;;;;;11.90;73.09;101824.41;5110750;28;20520;-58
2022/07/28 03:37:31;;;;;;;14.32;8.00;;;;;;;11.84;72.89;101818.06;5111267;28;20328;-60
2022/07/28 03:39:58;;;;;;;11.40;7.55;;;;;;;11.80;73.19;101817.00;5112711;28;20126;-58
2022/07/28 03:42:25;;;;;;;17.73;7.97;;;;;;;11.85;73.08;101833.59;5115239;28;20019;-58
2022/07/28 03:44:51;;;;;;;16.40;8.10;;;;;;;11.81;73.50;101825.03;5115138;28;20019;-59
2022/07/28 03:47:23;;;;;;;16.15;8.93;;;;;;;11.78;72.62;101816.47;5115384;28;20061;-59
2022/07/28 03:49:49;;;;;;;13.27;7.75;;;;;;;11.78;72.83;101825.59;5113579;28;20348;-59
2022/07/28 03:52:16;;;;;;;15.68;8.00;;;;;;;11.78;73.26;101822.03;5113490;28;20038;-59
2022/07/28 03:54:41;;;;;;;14.80;7.60;;;;;;;11.74;73.34;101821.78;5114821;28;20114;-58
2022/07/28 03:57:07;;;;;;;15.38;8.20;;;;;;;11.70;73.38;101818.75;5114865;28;20067;-59
2022/07/28 03:59:32;;;;;;;13.57;7.70;;;;;;;11.68;73.42;101823.75;5114989;28;20068;-59
2022/07/28 04:01:58;;;;;;;15.70;7.80;;;;;;;11.65;73.70;101832.66;5114809;28;20486;-59
2022/07/28 04:04:23;;;;;;;15.75;8.13;;;;;;;11.63;73.89;101829.31;5114812;28;20039;-59
2022/07/28 04:06:49;;;;;;;16.25;8.50;;;;;;;11.62;74.01;101822.13;5113282;28;20042;-59
2022/07/28 04:09:14;;;;;;;16.23;8.50;;;;;;;11.60;74.18;101818.00;5115078;28;20031;-59
2022/07/28 04:11:40;;;;;;;17.23;8.50;;;;;;;11.59;74.21;101819.94;5114532;28;20038;-59
2022/07/28 04:14:06;;;;;;;20.10;8.40;;;;;;;11.60;74.28;101827.16;5112897;28;20027;-59
2022/07/28 04:16:31;;;;;;;15.85;8.45;;;;;;;11.60;74.53;101818.00;5114630;28;20098;-59
2022/07/28 04:18:57;;;;;;;16.77;8.25;;;;;;;11.58;74.72;101814.69;5114296;28;20032;-59
2022/07/28 04:21:22;;;;;;;16.08;8.10;;;;;;;11.61;74.26;101814.09;5114465;28;20462;-58
2022/07/28 04:23:48;;;;;;;14.13;8.15;;;;;;;11.64;74.52;101813.53;5113342;28;20027;-60
2022/07/28 04:26:13;;;;;;;16.50;8.18;;;;;;;11.63;74.68;101812.69;5114263;28;20090;-58
2022/07/28 04:28:39;;;;;;;17.30;7.90;;;;;;;11.65;74.40;101809.66;5114497;28;20361;-58
2022/07/28 04:31:04;;;;;;;14.00;7.88;;;;;;;11.66;74.78;101809.34;5114715;28;20507;-58
2022/07/28 04:33:29;;;;;;;15.98;7.90;;;;;;;11.73;74.43;101810.97;5114160;28;20114;-58
2022/07/28 04:35:55;;;;;;;15.93;8.27;;;;;;;11.72;74.66;101807.38;5114377;28;20024;-59
2022/07/28 04:38:20;;;;;;;13.48;8.07;;;;;;;11.74;74.55;101804.31;5114238;28;20062;-58
2022/07/28 04:40:47;;;;;;;14.25;8.00;;;;;;;11.78;74.94;101805.38;5114120;28;20048;-59
2022/07/28 04:43:13;;;;;;;15.23;7.80;;;;;;;11.78;74.94;101806.19;5114302;28;20034;-59
2022/07/28 04:45:38;;;;;;;17.70;8.40;;;;;;;11.83;74.70;101803.41;5114584;28;20479;-59
2022/07/28 04:48:04;;;;;;;15.00;8.25;;;;;;;11.86;74.64;101808.34;5114227;28;20055;-59
2022/07/28 04:50:30;;;;;;;15.00;8.05;;;;;;;11.89;74.34;101806.09;5114515;28;20038;-59
2022/07/28 04:52:57;;;;;;;15.00;8.20;;;;;;;11.91;74.59;101804.69;5114591;28;20023;-60
2022/07/28 04:55:23;;;;;;;17.50;8.60;;;;;;;11.95;74.46;101804.97;5114453;28;20036;-59
2022/07/28 04:57:49;;;;;;;18.63;8.77;;;;;;;11.96;74.28;101810.22;5114129;28;20032;-59
2022/07/28 05:00:14;;;;;;;18.27;8.70;;;;;;;12.00;74.15;101804.94;5112563;28;20072;-59
2022/07/28 05:02:41;;;;;;;14.98;8.70;;;;;;;12.01;74.49;101810.19;5114532;28;20027;-60
2022/07/28 05:05:08;;;;;;;16.30;8.50;;;;;;;12.08;74.21;101803.47;5112448;28;20029;-59
2022/07/28 05:07:33;;;;;;;14.35;8.02;;;;;;;12.16;73.97;101800.06;5113779;27;20152;-60
2022/07/28 05:09:58;;;;;;;16.80;8.80;;;;;;;12.19;73.86;101809.72;5114186;28;20076;-59
2022/07/28 05:12:24;;;;;;;16.08;8.40;;;;;;;12.22;73.75;101811.94;5112305;28;20090;-60
2022/07/28 05:14:49;;;;;;;15.45;8.80;;;;;;;12.23;73.95;101816.38;5113867;28;20074;-59
2022/07/28 05:17:14;;;;;;;17.38;8.50;;;;;;;12.25;73.82;101814.94;5112831;28;20122;-59
2022/07/28 05:19:40;;;;;;;15.32;8.48;;;;;;;12.29;73.81;101807.66;5113617;28;20019;-59
2022/07/28 05:22:05;;;;;;;14.07;8.18;;;;;;;12.30;73.87;101806.56;5113829;28;20026;-59
2022/07/28 05:24:31;;;;;;;13.95;8.30;;;;;;;12.38;73.76;101813.41;5113408;28;20829;-59
2022/07/28 05:26:56;;;;;;;17.80;8.95;;;;;;;12.41;73.53;101814.75;5113356;28;20084;-59
2022/07/28 05:29:22;;;;;;;20.85;8.80;;;;;;;12.45;73.80;101800.00;5113718;28;20055;-59
2022/07/28 05:31:47;;;;;;;16.60;9.27;;;;;;;12.51;73.10;101803.53;5114068;28;20028;-59
2022/07/28 05:34:13;;;;;;;17.98;8.95;;;;;;;12.47;72.86;101802.47;5113929;27;20481;-59
2022/07/28 05:36:38;;;;;;;16.42;8.90;;;;;;;12.53;72.94;101820.72;5113616;27;20027;-60
2022/07/28 05:39:03;;;;;;;14.77;8.52;;;;;;;12.61;73.03;101808.16;5113116;28;20036;-59
2022/07/28 05:41:29;;;;;;;16.83;8.98;;;;;;;12.70;72.89;101813.88;5113561;28;20054;-59
2022/07/28 05:43:54;;;;;;;17.00;8.63;;;;;;;12.77;72.58;101806.84;5113293;28;20035;-59
2022/07/28 05:46:19;;;;;;;18.33;9.25;;;;;;;12.84;72.13;101816.75;5113277;28;20039;-58
2022/07/28 05:48:45;;;;;;;18.83;9.23;;;;;;;12.87;71.67;101810.59;5113194;28;20364;-59
2022/07/28 05:51:10;;;;;;;18.00;8.90;;;;;;;12.93;71.72;101798.28;5113527;28;20024;-59
2022/07/28 05:53:36;;;;;;;18.77;9.48;;;;;;;12.97;71.02;101815.19;5113254;28;20100;-58
2022/07/28 05:56:01;;;;;;;14.40;8.90;;;;;;;12.99;71.21;101815.72;5112722;28;20107;-59
2022/07/28 05:58:27;;;;;;;18.48;9.05;;;;;;;13.03;71.22;101817.59;5112899;28;20019;-59
2022/07/28 06:00:53;;;;;;;17.15;8.88;;;;;;;13.13;70.88;101811.06;5113212;28;20108;-58
2022/07/28 06:03:18;;;;;;;17.30;8.80;;;;;;;13.19;70.17;101804.31;5112585;28;20073;-59
2022/07/28 06:05:43;;;;;;;16.00;8.57;;;;;;;13.32;70.19;101819.41;5113095;28;20111;-58
2022/07/28 06:08:09;;;;;;;15.63;8.52;;;;;;;13.41;69.68;101825.97;5112453;28;20019;-59
2022/07/28 06:13:18;;;;;;;;;;;;;;;13.54;69.13;101815.22;5113433;28;20042;-58
2022/07/28 06:15:47;;;;;;;17.35;8.75;;;;;;;13.54;69.07;101818.00;5112474;28;20006;-58
2022/07/28 06:18:13;;;;;;;15.68;8.35;;;;;;;13.68;69.01;101809.72;5113071;28;20015;-59
2022/07/28 06:20:38;;;;;;;19.42;8.32;;;;;;;13.82;68.21;101813.34;5113243;28;20106;-59
2022/07/28 06:23:04;;;;;;;16.23;7.97;;;;;;;13.86;68.00;101814.41;5112800;28;20110;-60
2022/07/28 06:25:30;;;;;;;17.60;7.90;;;;;;;13.98;67.16;101816.69;5111125;28;20548;-59
2022/07/28 06:28:01;;;;;;;14.68;8.10;;;;;;;14.10;66.79;101813.41;5112653;28;20047;-57
2022/07/28 06:30:27;;;;;;;14.82;7.43;;;;;;;14.23;66.63;101814.53;5113062;28;20111;-58
2022/07/28 06:32:55;;;;;;;16.50;7.97;;;;;;;14.38;67.11;101802.28;5112868;28;20051;-60
2022/07/28 06:35:21;;;;;;;14.48;7.28;;;;;;;14.58;65.96;101815.00;5112444;28;20038;-60
2022/07/28 06:37:48;;;;;;;14.90;7.70;;;;;;;14.70;66.07;101822.84;5112501;28;20024;-59
2022/07/28 06:40:14;;;;;;;17.23;7.80;;;;;;;14.87;65.74;101810.25;5112336;28;20111;-60
2022/07/28 06:42:43;;;;;;;16.70;7.88;;;;;;;14.95;65.15;101806.72;5112086;28;20528;-59
2022/07/28 06:45:10;;;;;;;17.08;8.20;;;;;;;14.99;64.92;101804.97;5112234;28;20023;-59
2022/07/28 06:47:36;;;;;;;13.68;7.85;;;;;;;15.06;63.97;101802.56;5110486;28;20493;-61
2022/07/28 06:50:02;;;;;;;17.70;7.90;;;;;;;15.12;63.80;101806.88;5110169;28;20031;-59
2022/07/28 06:52:28;;;;;;;15.60;8.00;;;;;;;15.19;63.29;101809.25;5112219;28;20080;-60
2022/07/28 06:54:53;;;;;;;17.33;7.65;;;;;;;15.23;62.99;101809.44;5112241;27;20428;-59
2022/07/28 06:57:20;;;;;;;16.98;8.07;;;;;;;15.21;63.82;101793.03;5112421;28;20031;-59
2022/07/28 06:59:49;;;;;;;13.38;8.05;;;;;;;15.41;63.38;101805.66;5112393;28;20046;-58
2022/07/28 07:02:15;;;;;;;16.23;8.07;;;;;;;15.57;62.19;101808.09;5110168;28;20382;-58
2022/07/28 07:04:41;;;;;;;15.30;8.20;;;;;;;15.57;62.50;101796.94;5111358;28;20023;-59
2022/07/28 07:07:06;;;;;;;20.05;7.95;;;;;;;15.77;62.73;101809.53;5111846;28;20092;-58
2022/07/28 07:09:32;;;;;;;15.50;7.82;;;;;;;15.90;61.70;101808.66;5111693;28;20459;-58
2022/07/28 07:11:57;;;;;;;15.70;7.80;;;;;;;15.89;61.24;101809.81;5111741;28;20027;-59
2022/07/28 07:14:23;;;;;;;14.75;8.00;;;;;;;15.87;61.34;101808.47;5110711;28;20066;-59
2022/07/28 07:16:49;;;;;;;19.73;7.97;;;;;;;15.90;60.73;101808.66;5111998;28;20027;-57
2022/07/28 07:19:15;;;;;;;15.00;7.68;;;;;;;16.01;60.37;101802.81;5111471;28;20393;-59
2022/07/28 07:21:40;;;;;;;13.57;7.68;;;;;;;16.17;59.36;101812.41;5109849;28;20122;-58
2022/07/28 07:24:06;;;;;;;16.63;7.95;;;;;;;16.01;58.53;101814.78;5111439;28;20114;-58
2022/07/28 07:26:31;;;;;;;15.30;7.88;;;;;;;16.00;58.54;101809.53;5111706;28;20107;-59
2022/07/28 07:28:56;;;;;;;16.23;7.75;;;;;;;16.09;58.97;101809.56;5111617;28;20034;-59
2022/07/28 07:31:22;;;;;;;14.88;7.90;;;;;;;16.21;59.31;101810.59;5112296;28;20184;-59
2022/07/28 07:33:47;;;;;;;16.63;7.80;;;;;;;16.36;58.91;101814.94;5111629;28;20052;-59
2022/07/28 07:36:12;;;;;;;15.30;7.43;;;;;;;16.38;58.86;101803.47;5111712;28;20019;-59
2022/07/28 07:38:38;;;;;;;16.60;7.35;;;;;;;16.57;58.69;101805.19;5110207;28;20494;-59
2022/07/28 07:41:04;;;;;;;16.73;7.47;;;;;;;16.57;57.90;101800.41;5111022;28;20130;-59
2022/07/28 07:43:29;;;;;;;15.75;7.70;;;;;;;16.45;57.88;101805.78;5111131;28;20127;-59
2022/07/28 07:45:54;;;;;;;16.90;7.88;;;;;;;16.31;57.73;101805.88;5109911;28;20036;-60
2022/07/28 07:48:20;;;;;;;15.38;8.10;;;;;;;16.30;58.88;101809.81;5111512;28;20106;-59
2022/07/28 07:50:45;;;;;;;17.35;7.90;;;;;;;16.40;57.68;101812.34;5111511;28;20024;-60
2022/07/28 07:53:11;;;;;;;14.68;7.70;;;;;;;16.43;57.88;101792.16;5111272;28;20231;-58
2022/07/28 07:55:36;;;;;;;17.33;8.13;;;;;;;16.52;57.60;101800.56;5111170;28;20055;-59
2022/07/28 07:58:02;;;;;;;14.55;7.93;;;;;;;16.65;57.48;101794.00;5111303;28;20028;-59
2022/07/28 08:00:28;;;;;;;16.58;7.60;;;;;;;16.80;57.05;101781.56;5110953;28;20038;-60
2022/07/28 08:02:54;;;;;;;13.48;7.80;;;;;;;16.98;56.61;101784.41;5111315;28;20024;-60
2022/07/28 08:05:19;;;;;;;14.75;7.60;;;;;;;17.17;56.02;101786.91;5111247;28;20190;-60
2022/07/28 08:07:45;;;;;;;17.08;7.75;;;;;;;17.26;54.84;101784.94;5111660;28;20448;-59
2022/07/28 08:10:10;;;;;;;15.73;8.07;;;;;;;17.35;55.07;101787.69;5111608;28;20046;-59
2022/07/28 08:12:36;;;;;;;16.70;7.80;;;;;;;17.26;54.26;101789.69;5111310;28;20129;-59
2022/07/28 08:15:03;;;;;;;16.45;7.97;;;;;;;17.27;54.31;101788.53;5111009;28;20024;-59
2022/07/28 08:17:28;;;;;;;13.98;7.72;;;;;;;17.22;54.59;101780.31;5111388;28;20027;-59
2022/07/28 08:19:54;;;;;;;14.60;7.80;;;;;;;17.24;54.36;101781.63;5110900;28;20026;-59
2022/07/28 08:22:20;;;;;;;13.82;7.80;;;;;;;17.24;54.25;101780.81;5111309;28;20034;-59
2022/07/28 08:24:45;;;;;;;14.88;8.00;;;;;;;17.35;55.15;101782.09;5110992;28;20046;-59
2022/07/28 08:27:11;;;;;;;14.18;7.55;;;;;;;17.41;54.07;101782.78;5114407;28;20040;-59
2022/07/28 08:29:36;;;;;;;13.95;7.32;;;;;;;17.55;54.46;101782.59;5114876;28;20339;-59
2022/07/28 08:32:03;;;;;;;15.48;7.72;;;;;;;17.65;53.70;101773.84;5114357;27;20062;-59
2022/07/28 08:34:32;;;;;;;14.05;8.10;;;;;;;17.77;53.73;101775.97;5112840;28;20023;-59
2022/07/28 08:36:58;;;;;;;15.57;7.80;;;;;;;17.71;52.42;101771.69;5114841;28;20127;-60
2022/07/28 08:39:23;;;;;;;13.18;7.43;;;;;;;17.76;52.37;101780.75;5114459;27;20386;-60
2022/07/28 08:42:01;;;;;;;13.93;7.47;;;;;;;17.83;52.59;101780.25;5114350;28;20051;-59
2022/07/28 08:44:32;;;;;;;18.23;7.70;;;;;;;17.92;52.61;101774.59;5114536;28;20023;-59
2022/07/28 08:46:58;;;;;;;14.95;7.20;;;;;;;18.00;52.20;101781.38;5114706;28;20030;-59
2022/07/28 08:49:25;;;;;;;17.63;7.50;;;;;;;18.02;51.93;101781.88;5113282;28;20026;-59
2022/07/28 08:51:53;;;;;;;14.68;7.50;;;;;;;18.03;52.45;101769.50;5114312;28;20054;-59
2022/07/28 08:54:24;;;;;;;13.20;7.10;;;;;;;18.18;51.24;101780.16;5114332;28;20059;-59
2022/07/28 08:56:50;;;;;;;13.52;7.20;;;;;;;18.17;51.21;101778.50;5114586;28;20023;-60
2022/07/28 08:59:16;;;;;;;13.05;7.05;;;;;;;18.08;50.77;101772.97;5113913;28;20096;-60
2022/07/28 09:01:41;;;;;;;14.32;7.20;;;;;;;18.15;50.87;101766.00;5114609;28;20124;-60
2022/07/28 09:04:08;;;;;;;18.02;7.35;;;;;;;18.16;50.61;101753.66;5113895;28;20432;-60
2022/07/28 09:06:34;;;;;;;15.02;7.57;;;;;;;18.44;51.43;101768.00;5114715;28;20108;-58
2022/07/28 09:08:59;;;;;;;15.20;7.47;;;;;;;18.55;50.53;101758.03;5114428;28;20086;-62
2022/07/28 09:11:27;;;;;;;13.35;6.93;;;;;;;18.51;50.37;101747.84;5114153;28;20100;-60
2022/07/28 09:13:52;;;;;;;12.40;6.95;;;;;;;18.64;49.39;101768.38;5113824;28;20028;-59
2022/07/28 09:16:18;;;;;;;14.45;7.20;;;;;;;18.73;49.33;101760.72;5114492;28;20030;-59
2022/07/28 09:18:43;;;;;;;14.45;7.25;;;;;;;18.86;50.14;101770.03;5115856;27;20024;-58
2022/07/28 09:21:13;;;;;;;17.45;7.60;;;;;;;19.07;50.60;101764.50;5114064;28;20371;-59
2022/07/28 09:23:46;;;;;;;12.07;7.10;;;;;;;19.18;49.13;101767.69;5113432;28;20068;-59
2022/07/28 09:26:12;;;;;;;14.90;7.25;;;;;;;19.16;48.09;101753.19;5113675;28;20024;-59
2022/07/28 09:28:53;;;;;;;13.95;7.65;;;;;;;19.26;48.76;101754.78;5113557;28;20047;-59
2022/07/28 09:31:20;;;;;;;15.65;7.90;;;;;;;19.11;48.22;101742.19;5113827;28;20083;-59
2022/07/28 09:34:01;;;;;;;12.68;7.30;;;;;;;19.27;47.66;101737.59;5114000;28;20028;-60
2022/07/28 09:36:37;;;;;;;11.85;6.80;;;;;;;19.18;48.24;101739.66;5112061;28;20464;-60
2022/07/28 09:39:03;;;;;;;15.52;7.20;;;;;;;19.24;48.04;101737.44;5112980;28;20055;-59
2022/07/28 09:41:44;;;;;;;15.70;7.60;;;;;;;19.44;48.16;101736.59;5113753;28;20068;-59
2022/07/28 09:44:20;;;;;;;14.40;7.50;;;;;;;19.50;47.70;101725.97;5113189;28;20035;-60
2022/07/28 09:46:46;;;;;;;15.23;7.68;;;;;;;19.34;47.70;101731.41;5112230;28;20031;-60
2022/07/28 09:49:11;;;;;;;17.13;7.45;;;;;;;19.29;47.14;101731.63;5113032;28;20038;-60
2022/07/28 09:51:37;;;;;;;15.13;7.50;;;;;;;19.35;47.29;101726.63;5111294;28;20080;-60
2022/07/28 09:54:13;;;;;;;16.27;8.07;;;;;;;19.33;47.07;101724.97;5113582;28;20027;-60
2022/07/28 09:56:44;;;;;;;17.42;7.60;;;;;;;19.57;46.95;101717.81;5111821;28;20046;-60
2022/07/28 09:59:11;;;;;;;14.40;8.27;;;;;;;19.78;47.08;101714.91;5112329;28;20068;-59
2022/07/28 10:01:49;;;;;;;14.70;7.22;;;;;;;19.78;46.68;101711.31;5112748;27;20042;-59
2022/07/28 10:04:15;;;;;;;17.45;7.20;;;;;;;19.89;45.95;101703.28;5112573;28;20027;-59
2022/07/28 10:06:40;;;;;;;15.02;6.88;;;;;;;20.05;46.65;101701.41;5112801;28;20038;-59
2022/07/28 10:09:06;;;;;;;14.45;6.90;;;;;;;20.30;46.36;101709.84;5112927;28;20023;-59
2022/07/28 10:11:32;;;;;;;17.85;7.70;;;;;;;20.51;46.03;101717.28;5111108;28;20520;-59
2022/07/28 10:14:04;;;;;;;14.15;7.63;;;;;;;20.65;45.06;101717.75;5112621;28;20126;-59
2022/07/28 10:16:43;;;;;;;12.90;7.22;;;;;;;20.75;45.00;101715.66;5111976;28;20103;-59
2022/07/28 10:19:08;;;;;;;11.23;6.60;;;;;;;20.68;44.33;101716.22;5113296;28;20031;-60
2022/07/28 10:21:45;;;;;;;12.35;7.30;;;;;;;20.27;44.23;101702.91;5112612;28;20035;-59
2022/07/28 10:24:20;;;;;;;13.27;7.40;;;;;;;20.37;44.56;101714.84;5112274;28;20084;-60
2022/07/28 10:26:46;;;;;;;11.32;6.85;;;;;;;20.42;44.25;101704.19;5112404;28;20028;-60
2022/07/28 10:29:14;;;;;;;12.43;7.20;;;;;;;20.31;44.40;101697.41;5112489;28;20122;-60
2022/07/28 10:31:47;;;;;;;15.52;7.20;;;;;;;20.37;45.21;101703.59;5111998;28;20055;-60
2022/07/28 10:34:20;;;;;;;13.27;7.00;;;;;;;20.37;45.18;101701.63;5111498;28;20031;-58
2022/07/28 10:36:47;;;;;;;12.10;7.10;;;;;;;20.58;43.16;101709.09;5111993;28;20046;-59
2022/07/28 10:39:17;;;;;;;19.23;7.45;;;;;;;20.72;43.66;101697.47;5111803;28;20099;-59
2022/07/28 10:41:43;;;;;;;14.40;7.28;;;;;;;20.96;43.35;101695.78;5111688;28;20043;-59
2022/07/28 10:44:12;;;;;;;12.15;7.00;;;;;;;21.07;43.73;101682.84;5109679;28;20027;-59
2022/07/28 10:46:39;;;;;;;14.77;7.15;;;;;;;21.08;43.41;101678.03;5109928;28;20031;-59
2022/07/28 10:49:06;;;;;;;9.82;6.88;;;;;;;21.18;42.30;101688.75;5111747;28;20040;-60
2022/07/28 10:51:31;;;;;;;13.48;7.20;;;;;;;21.11;41.76;101685.75;5111467;28;20438;-60
2022/07/28 10:54:07;;;;;;;11.90;6.90;;;;;;;21.04;42.81;101690.00;5111919;28;20051;-59
2022/07/28 10:56:32;;;;;;;17.65;7.60;;;;;;;21.25;43.04;101680.56;5111981;28;20098;-60
2022/07/28 10:59:07;;;;;;;9.50;6.90;;;;;;;21.35;43.04;101688.44;5111971;28;20058;-59
2022/07/28 11:01:35;;;;;;;11.23;7.00;;;;;;;21.48;40.95;101665.84;5111399;28;20300;-59
2022/07/28 11:04:00;;;;;;;11.10;6.95;;;;;;;21.61;40.73;101687.16;5111658;28;20426;-60
2022/07/28 11:06:38;;;;;;;14.25;7.57;;;;;;;21.74;41.34;101690.72;5111426;28;20015;-60
2022/07/28 11:09:15;;;;;;;12.93;6.97;;;;;;;21.81;41.31;101693.69;5111630;28;20023;-60
2022/07/28 11:11:54;;;;;;;11.13;7.20;;;;;;;21.77;41.31;101672.25;5110172;28;20047;-61
2022/07/28 11:14:26;;;;;;;13.65;7.60;;;;;;;21.83;39.93;101681.25;5111248;28;20027;-60
2022/07/28 11:17:04;;;;;;;14.25;7.57;;;;;;;21.73;40.91;101685.41;5109531;28;20045;-60
2022/07/28 11:19:42;;;;;;;10.25;6.95;;;;;;;21.72;39.98;101681.00;5109783;28;20131;-59
2022/07/28 11:22:14;;;;;;;11.52;6.80;;;;;;;21.85;40.85;101671.25;5111231;28;20031;-59
2022/07/28 11:25:00;;;;;;;13.20;7.10;;;;;;;21.95;40.82;101676.34;5110880;28;20152;-60
2022/07/28 11:27:50;;;;;;;10.52;6.90;;;;;;;21.99;40.45;101673.59;5111364;28;20028;-60